createdAt,value
2018-05-04T00:00:35.527Z,7.20
2018-05-04T00:05:26.407Z,7.10
2018-05-04T00:10:17.372Z,7.00
2018-05-04T00:15:08.273Z,7.00
2018-05-04T00:19:59.239Z,6.80
2018-05-04T00:24:50.161Z,6.80
2018-05-04T00:29:41.055Z,6.70
2018-05-04T00:34:32.000Z,6.60
2018-05-04T00:39:22.920Z,6.50
2018-05-04T00:44:13.847Z,6.40
2018-05-04T00:49:04.759Z,6.40
2018-05-04T00:54:08.118Z,6.30
2018-05-04T00:58:59.822Z,6.10
2018-05-04T01:03:50.726Z,6.10
2018-05-04T01:08:41.653Z,6.00
2018-05-04T01:13:32.577Z,6.00
2018-05-04T01:18:24.204Z,5.80
2018-05-04T01:23:15.142Z,5.80
2018-05-04T01:28:06.032Z,5.70
2018-05-04T01:32:56.952Z,5.70
2018-05-04T01:37:47.873Z,5.60
2018-05-04T01:42:38.797Z,5.50
2018-05-04T01:47:29.711Z,5.50
2018-05-04T01:52:20.610Z,5.40
2018-05-04T01:57:11.559Z,5.40
2018-05-04T02:02:02.474Z,5.30
2018-05-04T02:06:53.389Z,5.30
2018-05-04T02:11:44.289Z,5.20
2018-05-04T02:16:35.218Z,5.10
2018-05-04T02:21:26.117Z,5.10
2018-05-04T02:26:17.026Z,5.00
2018-05-04T02:31:07.934Z,5.00
2018-05-04T02:35:58.866Z,4.90
2018-05-04T02:40:49.777Z,4.90
2018-05-04T02:45:40.723Z,4.80
2018-05-04T02:50:31.658Z,4.80
2018-05-04T02:55:22.560Z,4.70
2018-05-04T03:00:13.474Z,4.70
2018-05-04T03:05:04.379Z,4.60
2018-05-04T03:09:55.296Z,4.60
2018-05-04T03:14:46.202Z,4.50
2018-05-04T03:19:37.112Z,4.50
2018-05-04T03:24:28.759Z,4.40
2018-05-04T03:29:19.661Z,4.40
2018-05-04T03:34:11.397Z,4.30
2018-05-04T03:39:03.027Z,4.20
2018-05-04T03:43:54.738Z,4.20
2018-05-04T03:48:45.648Z,4.20
2018-05-04T03:53:36.557Z,4.20
2018-05-04T03:58:39.994Z,4.10
2018-05-04T04:03:43.359Z,4.10
2018-05-04T04:08:34.344Z,4.00
2018-05-04T04:13:25.999Z,4.00
2018-05-04T04:18:17.646Z,4.00
2018-05-04T04:23:08.590Z,4.00
2018-05-04T04:27:59.534Z,4.00
2018-05-04T04:32:50.448Z,4.00
2018-05-04T04:37:41.358Z,4.00
2018-05-04T04:42:32.273Z,4.00
2018-05-04T04:47:23.166Z,4.00
2018-05-04T04:52:14.141Z,4.10
2018-05-04T04:57:05.150Z,4.10
2018-05-04T05:01:56.175Z,4.20
2018-05-04T05:06:46.990Z,4.30
2018-05-04T05:11:37.908Z,4.30
2018-05-04T05:16:28.801Z,4.40
2018-05-04T05:21:19.736Z,4.50
2018-05-04T05:26:10.661Z,4.60
2018-05-04T05:31:01.595Z,4.80
2018-05-04T05:35:52.498Z,4.90
2018-05-04T05:40:44.135Z,5.20
2018-05-04T05:45:35.024Z,5.20
2018-05-04T05:50:25.961Z,5.40
2018-05-04T05:55:16.847Z,5.60
2018-05-04T06:00:07.754Z,5.80
2018-05-04T06:04:58.687Z,6.00
2018-05-04T06:09:49.610Z,6.10
2018-05-04T06:14:40.513Z,6.30
2018-05-04T06:19:31.417Z,6.50
2018-05-04T06:24:22.618Z,6.70
2018-05-04T06:29:13.526Z,6.80
2018-05-04T06:34:04.462Z,7.00
2018-05-04T06:38:56.394Z,7.40
2018-05-04T06:43:47.385Z,7.40
2018-05-04T06:48:38.369Z,7.60
2018-05-04T06:53:29.268Z,7.80
2018-05-04T06:58:20.964Z,8.30
2018-05-04T07:03:12.662Z,8.60
2018-05-04T07:08:03.551Z,8.60
2018-05-04T07:12:54.458Z,8.90
2018-05-04T07:17:45.359Z,9.30
2018-05-04T07:22:36.253Z,9.60
2018-05-04T07:27:27.214Z,10.00
2018-05-04T07:32:18.106Z,10.30
2018-05-04T07:37:09.003Z,10.50
2018-05-04T07:41:59.978Z,10.80
2018-05-04T07:46:50.892Z,11.00
2018-05-04T07:51:41.903Z,11.20
2018-05-04T07:56:36.783Z,11.40
2018-05-04T08:01:27.771Z,11.60
2018-05-04T08:06:19.417Z,12.00
2018-05-04T08:11:10.401Z,11.90
2018-05-04T08:16:01.308Z,12.10
2018-05-04T08:20:52.234Z,12.20
2018-05-04T08:25:43.154Z,12.40
2018-05-04T08:30:34.066Z,12.50
2018-05-04T08:35:24.998Z,12.60
2018-05-04T08:40:15.918Z,12.70
2018-05-04T08:45:06.926Z,12.80
2018-05-04T08:49:58.598Z,12.90
2018-05-04T08:54:50.246Z,13.00
2018-05-04T08:59:41.880Z,13.10
2018-05-04T09:04:33.517Z,13.20
2018-05-04T09:09:24.425Z,13.20
2018-05-04T09:14:15.311Z,13.20
2018-05-04T09:19:06.214Z,13.30
2018-05-04T09:23:57.126Z,13.30
2018-05-04T09:28:48.014Z,13.40
2018-05-04T09:33:39.640Z,13.60
2018-05-04T09:38:31.281Z,13.70
2018-05-04T09:43:22.989Z,13.70
2018-05-04T09:48:13.892Z,13.70
2018-05-04T09:53:04.809Z,13.80
2018-05-04T09:57:55.801Z,13.90
2018-05-04T10:02:46.726Z,13.90
2018-05-04T10:07:37.691Z,14.00
2018-05-04T10:12:28.584Z,14.10
2018-05-04T10:17:19.526Z,14.20
2018-05-04T10:22:10.436Z,14.30
2018-05-04T10:27:01.351Z,14.40
2018-05-04T10:31:52.261Z,14.50
2018-05-04T10:36:43.161Z,14.70
2018-05-04T10:41:34.118Z,14.80
2018-05-04T10:46:25.028Z,15.00
2018-05-04T10:51:15.944Z,15.10
2018-05-04T10:56:08.055Z,15.30
2018-05-04T11:00:59.010Z,15.50
2018-05-04T11:05:49.941Z,15.80
2018-05-04T11:10:40.872Z,16.10
2018-05-04T11:15:31.775Z,16.40
2018-05-04T11:20:22.681Z,16.80
2018-05-04T11:25:13.694Z,17.20
2018-05-04T11:30:04.609Z,17.60
2018-05-04T11:34:55.582Z,18.10
2018-05-04T11:39:46.496Z,18.60
2018-05-04T11:44:37.409Z,19.10
2018-05-04T11:49:28.322Z,19.70
2018-05-04T11:54:19.220Z,20.30
2018-05-04T11:59:10.125Z,20.90
2018-05-04T12:04:01.092Z,21.40
2018-05-04T12:08:51.986Z,22.00
2018-05-04T12:13:42.901Z,22.50
2018-05-04T12:18:33.794Z,23.10
2018-05-04T12:23:24.706Z,23.50
2018-05-04T12:28:15.679Z,24.00
2018-05-04T12:33:06.658Z,24.40
2018-05-04T12:37:58.288Z,25.10
2018-05-04T12:42:49.929Z,25.30
2018-05-04T12:47:40.833Z,25.30
2018-05-04T12:52:31.775Z,25.50
2018-05-04T12:57:22.687Z,25.50
2018-05-04T13:02:14.360Z,25.20
2018-05-04T13:07:05.311Z,25.20
2018-05-04T13:11:57.005Z,24.90
2018-05-04T13:16:47.917Z,24.90
2018-05-04T13:21:38.833Z,24.60
2018-05-04T13:26:30.488Z,24.10
2018-05-04T13:31:21.494Z,24.00
2018-05-04T13:36:12.393Z,23.70
2018-05-04T13:41:03.370Z,23.30
2018-05-04T13:45:54.292Z,23.00
2018-05-04T13:50:45.197Z,22.70
2018-05-04T13:55:36.089Z,22.30
2018-05-04T14:00:27.767Z,21.90
2018-05-04T14:05:19.482Z,21.70
2018-05-04T14:10:10.398Z,21.70
2018-05-04T14:15:01.922Z,21.50
2018-05-04T14:19:52.849Z,21.30
2018-05-04T14:24:43.833Z,21.30
2018-05-04T14:29:34.739Z,21.30
2018-05-04T14:34:25.662Z,21.50
2018-05-04T14:39:17.318Z,22.10
2018-05-04T14:44:08.243Z,22.00
2018-05-04T14:48:59.140Z,22.30
2018-05-04T14:53:50.048Z,22.60
2018-05-04T14:58:40.971Z,22.70
2018-05-04T15:03:31.897Z,22.90
2018-05-04T15:08:22.804Z,23.10
2018-05-04T15:13:14.066Z,23.30
2018-05-04T15:18:05.033Z,23.30
2018-05-04T15:22:55.949Z,23.50
2018-05-04T15:27:46.849Z,23.60
2018-05-04T15:32:37.745Z,23.60
2018-05-04T15:37:28.699Z,23.60
2018-05-04T15:42:19.686Z,23.60
2018-05-04T15:47:11.316Z,23.30
2018-05-04T15:52:03.189Z,23.30
2018-05-04T15:56:54.842Z,22.80
2018-05-04T16:01:46.526Z,22.60
2018-05-04T16:06:38.229Z,22.30
2018-05-04T16:11:29.308Z,22.30
2018-05-04T16:16:20.341Z,22.10
2018-05-04T16:21:11.998Z,21.60
2018-05-04T16:26:02.902Z,21.50
2018-05-04T16:30:54.550Z,21.10
2018-05-04T16:35:46.192Z,20.80
2018-05-04T16:40:37.225Z,20.80
2018-05-04T16:45:28.189Z,20.50
2018-05-04T16:50:19.089Z,20.30
2018-05-04T16:55:10.749Z,19.80
2018-05-04T17:00:02.455Z,19.60
2018-05-04T17:04:54.118Z,19.40
2018-05-04T17:09:45.147Z,19.40
2018-05-04T17:14:36.073Z,19.20
2018-05-04T17:19:27.017Z,19.00
2018-05-04T17:24:17.920Z,18.80
2018-05-04T17:29:08.826Z,18.60
2018-05-04T17:33:59.755Z,18.40
2018-05-04T17:38:50.651Z,18.20
2018-05-04T17:43:41.574Z,18.00
2018-05-04T17:48:33.219Z,17.60
2018-05-04T17:53:24.934Z,17.40
2018-05-04T17:58:15.847Z,17.40
2018-05-04T18:03:06.780Z,17.20
2018-05-04T18:07:57.666Z,17.00
2018-05-04T18:12:48.676Z,16.80
2018-05-04T18:17:39.586Z,16.60
2018-05-04T18:22:30.484Z,16.40
2018-05-04T18:27:22.189Z,16.00
2018-05-04T18:32:13.107Z,16.00
2018-05-04T18:37:04.010Z,15.80
2018-05-04T18:41:54.917Z,15.60
2018-05-04T18:46:45.830Z,15.50
2018-05-04T18:51:37.463Z,15.10
2018-05-04T18:56:29.863Z,15.00
2018-05-04T19:01:21.508Z,14.80
2018-05-04T19:06:13.149Z,14.60
2018-05-04T19:11:04.787Z,14.50
2018-05-04T19:15:56.509Z,14.30
2018-05-04T19:20:47.408Z,14.30
2018-05-04T19:25:53.325Z,14.10
2018-05-04T19:30:45.032Z,13.70
2018-05-04T19:35:35.997Z,13.70
2018-05-04T19:40:26.909Z,13.60
2018-05-04T19:45:17.828Z,13.40
2018-05-04T19:50:08.749Z,13.20
2018-05-04T19:55:01.137Z,12.80
2018-05-04T19:59:52.824Z,12.60
2018-05-04T20:04:43.729Z,12.60
2018-05-04T20:09:34.625Z,12.40
2018-05-04T20:14:26.259Z,12.10
2018-05-04T20:19:17.322Z,12.10
2018-05-04T20:24:08.249Z,12.00
2018-05-04T20:28:59.225Z,11.90
2018-05-04T20:33:50.242Z,11.80
2018-05-04T20:38:43.857Z,11.70
2018-05-04T20:43:35.549Z,11.60
2018-05-04T20:48:26.436Z,11.60
2018-05-04T20:53:18.228Z,11.50
2018-05-04T20:58:09.150Z,11.50
2018-05-04T21:03:00.077Z,11.50
2018-05-04T21:07:50.980Z,11.40
2018-05-04T21:12:41.879Z,11.40
2018-05-04T21:17:33.525Z,11.30
2018-05-04T21:22:25.256Z,11.20
2018-05-04T21:27:16.944Z,11.20
2018-05-04T21:32:08.630Z,11.20
2018-05-04T21:37:00.361Z,11.10
2018-05-04T21:41:51.378Z,11.00
2018-05-04T21:46:42.277Z,11.00
2018-05-04T21:51:33.200Z,10.90
2018-05-04T21:56:24.122Z,10.90
2018-05-04T22:01:15.050Z,10.80
2018-05-04T22:06:05.974Z,10.70
2018-05-04T22:10:56.917Z,10.60
2018-05-04T22:15:48.624Z,10.40
2018-05-04T22:20:39.732Z,10.40
2018-05-04T22:25:30.632Z,10.40
2018-05-04T22:30:22.323Z,10.20
2018-05-04T22:35:13.223Z,10.20
2018-05-04T22:40:04.202Z,10.10
2018-05-04T22:44:55.962Z,10.00
2018-05-04T22:49:46.869Z,10.00
2018-05-04T22:54:38.594Z,9.80
2018-05-04T22:59:29.610Z,9.80
2018-05-04T23:04:20.629Z,9.80
2018-05-04T23:09:11.629Z,9.70
2018-05-04T23:14:02.574Z,9.60
2018-05-04T23:18:53.506Z,9.50
2018-05-04T23:23:44.417Z,9.50
2018-05-04T23:28:35.390Z,9.40
2018-05-04T23:33:27.117Z,9.20
2018-05-04T23:38:18.748Z,9.10
2018-05-04T23:43:09.645Z,9.10
2018-05-04T23:48:00.609Z,8.90
2018-05-04T23:52:52.316Z,8.70
2018-05-04T23:57:43.240Z,8.70
